Time,TemperatureF,DewpointF,PressureIn,WindDirection,WindDirectionDegrees,WindSpeedMPH,WindSpeedGustMPH,Humidity,HourlyPrecipIn,Conditions,Clouds,dailyrainin,SolarRadiationWatts/m^2,SoftwareType,DateUTC
2013-02-24 00:01:00,58.0,56.0,-100.00,NE,41,9.0,16.0,94,0.04,,,0.11,0.000000,,2013-02-24 10:01:00,
2013-02-24 00:22:00,58.0,56.0,-100.00,NE,41,9.0,16.0,94,0.04,,,0.11,0.000000,,2013-02-24 10:22:00,
2013-02-24 00:32:00,58.0,56.0,-100.00,NE,41,9.0,16.0,94,0.04,,,0.11,0.000000,,2013-02-24 10:32:00,
2013-02-24 00:42:00,58.0,56.0,-100.00,NE,41,9.0,16.0,94,0.04,,,0.11,0.000000,,2013-02-24 10:42:00,
2013-02-24 00:52:00,58.0,56.0,-100.00,NE,41,9.0,16.0,94,0.04,,,0.11,0.000000,,2013-02-24 10:52:00,
2013-02-24 01:01:00,58.0,56.0,-100.00,NNE,16,13.0,21.0,93,0.07,,,0.18,0.000000,,2013-02-24 11:01:00,
2013-02-24 01:32:00,58.0,56.0,-100.00,NNE,16,13.0,21.0,93,0.07,,,0.18,0.000000,,2013-02-24 11:32:00,
2013-02-24 01:42:00,58.0,56.0,-100.00,NNE,16,13.0,21.0,93,0.07,,,0.18,0.000000,,2013-02-24 11:42:00,
2013-02-24 01:52:00,58.0,56.0,-100.00,NNE,16,13.0,21.0,93,0.07,,,0.18,0.000000,,2013-02-24 11:52:00,
2013-02-24 02:01:00,58.0,55.0,-100.00,NNE,16,18.0,26.0,89,0.01,,,0.19,0.000000,,2013-02-24 12:01:00,
2013-02-24 02:22:00,58.0,55.0,-100.00,NNE,16,18.0,26.0,89,0.01,,,0.19,0.000000,,2013-02-24 12:22:00,
2013-02-24 02:32:00,58.0,55.0,-100.00,NNE,16,18.0,26.0,89,0.01,,,0.19,0.000000,,2013-02-24 12:32:00,
2013-02-24 02:46:00,58.0,55.0,-100.00,NNE,16,18.0,26.0,89,0.01,,,0.19,0.000000,,2013-02-24 12:46:00,
2013-02-24 02:55:00,58.0,55.0,-100.00,NNE,16,18.0,26.0,89,0.01,,,0.19,0.000000,,2013-02-24 12:55:00,
2013-02-24 03:35:00,57.0,53.0,-100.00,North,11,18.0,26.0,88,0.00,,,0.19,0.000000,,2013-02-24 13:35:00,
2013-02-24 03:45:00,57.0,53.0,-100.00,North,11,18.0,26.0,88,0.00,,,0.19,0.000000,,2013-02-24 13:45:00,
2013-02-24 03:54:00,57.0,53.0,-100.00,North,11,18.0,26.0,88,0.00,,,0.19,0.000000,,2013-02-24 13:54:00,
2013-02-24 04:01:00,56.0,53.0,-100.00,North,2,17.0,27.0,91,0.00,,,0.19,0.000000,,2013-02-24 14:01:00,
2013-02-24 04:25:00,56.0,53.0,-100.00,North,2,17.0,27.0,91,0.00,,,0.19,0.000000,,2013-02-24 14:25:00,
2013-02-24 04:34:00,56.0,53.0,-100.00,North,2,17.0,27.0,91,0.00,,,0.19,0.000000,,2013-02-24 14:34:00,
2013-02-24 04:45:00,56.0,53.0,-100.00,North,2,17.0,27.0,91,0.00,,,0.19,0.000000,,2013-02-24 14:45:00,
2013-02-24 05:01:00,57.0,53.0,-100.00,North,7,19.0,29.0,88,0.00,,,0.19,0.000000,,2013-02-24 15:01:00,
2013-02-24 05:32:00,57.0,53.0,-100.00,North,7,19.0,29.0,88,0.00,,,0.19,0.000000,,2013-02-24 15:32:00,
2013-02-24 05:42:00,57.0,53.0,-100.00,North,7,19.0,29.0,88,0.00,,,0.19,0.000000,,2013-02-24 15:42:00,
2013-02-24 05:52:00,57.0,53.0,-100.00,North,7,19.0,29.0,88,0.00,,,0.19,0.000000,,2013-02-24 15:52:00,
2013-02-24 06:01:00,58.0,55.0,-100.00,North,8,18.0,29.0,89,0.00,,,0.19,0.000000,,2013-02-24 16:01:00,
2013-02-24 06:32:00,58.0,55.0,-100.00,North,8,18.0,29.0,89,0.00,,,0.19,0.000000,,2013-02-24 16:32:00,
2013-02-24 06:42:00,58.0,55.0,-100.00,North,8,18.0,29.0,89,0.00,,,0.19,0.000000,,2013-02-24 16:42:00,
2013-02-24 06:52:00,58.0,55.0,-100.00,North,8,18.0,29.0,89,0.00,,,0.19,0.000000,,2013-02-24 16:52:00,
2013-02-24 07:01:00,59.0,55.0,-100.00,North,6,18.0,27.0,88,0.00,,,0.19,8.000000,,2013-02-24 17:01:00,
2013-02-24 07:22:00,59.0,55.0,-100.00,North,6,18.0,27.0,88,0.00,,,0.19,8.000000,,2013-02-24 17:22:00,
2013-02-24 07:32:00,59.0,55.0,-100.00,North,6,18.0,27.0,88,0.00,,,0.19,8.000000,,2013-02-24 17:32:00,
2013-02-24 07:42:00,59.0,55.0,-100.00,North,6,18.0,27.0,88,0.00,,,0.19,8.000000,,2013-02-24 17:42:00,
2013-02-24 07:52:00,59.0,55.0,-100.00,North,6,18.0,27.0,88,0.00,,,0.19,8.000000,,2013-02-24 17:52:00,
2013-02-24 08:01:00,61.0,56.0,-100.00,NNE,13,21.0,31.0,84,0.00,,,0.19,154.000000,,2013-02-24 18:01:00,
2013-02-24 08:22:00,61.0,56.0,-100.00,NNE,13,21.0,31.0,84,0.00,,,0.19,154.000000,,2013-02-24 18:22:00,
2013-02-24 08:32:00,61.0,56.0,-100.00,NNE,13,21.0,31.0,84,0.00,,,0.19,154.000000,,2013-02-24 18:32:00,
2013-02-24 08:42:00,61.0,56.0,-100.00,NNE,13,21.0,31.0,84,0.00,,,0.19,154.000000,,2013-02-24 18:42:00,
2013-02-24 08:52:00,61.0,56.0,-100.00,NNE,13,21.0,31.0,84,0.00,,,0.19,154.000000,,2013-02-24 18:52:00,
2013-02-24 09:01:00,64.0,58.0,-100.00,NNE,14,21.0,27.0,80,0.00,,,0.19,370.000000,,2013-02-24 19:01:00,
2013-02-24 09:22:00,64.0,58.0,-100.00,NNE,14,21.0,27.0,80,0.00,,,0.19,370.000000,,2013-02-24 19:22:00,
2013-02-24 09:32:00,64.0,58.0,-100.00,NNE,14,21.0,27.0,80,0.00,,,0.19,370.000000,,2013-02-24 19:32:00,
2013-02-24 09:42:00,64.0,58.0,-100.00,NNE,14,21.0,27.0,80,0.00,,,0.19,370.000000,,2013-02-24 19:42:00,
2013-02-24 09:52:00,64.0,58.0,-100.00,NNE,14,21.0,27.0,80,0.00,,,0.19,370.000000,,2013-02-24 19:52:00,
2013-02-24 10:01:00,63.0,57.0,-100.00,NNE,13,20.0,31.0,80,0.00,,,0.19,342.000000,,2013-02-24 20:01:00,
2013-02-24 10:32:00,63.0,57.0,-100.00,NNE,13,20.0,31.0,80,0.00,,,0.19,342.000000,,2013-02-24 20:32:00,
2013-02-24 10:42:00,63.0,57.0,-100.00,NNE,13,20.0,31.0,80,0.00,,,0.19,342.000000,,2013-02-24 20:42:00,
2013-02-24 10:52:00,63.0,57.0,-100.00,NNE,13,20.0,31.0,80,0.00,,,0.19,342.000000,,2013-02-24 20:52:00,
2013-02-24 11:01:00,64.0,56.0,-100.00,NNE,17,21.0,30.0,75,0.00,,,0.19,559.000000,,2013-02-24 21:01:00,
2013-02-24 11:32:00,64.0,56.0,-100.00,NNE,17,21.0,30.0,75,0.00,,,0.19,559.000000,,2013-02-24 21:32:00,
2013-02-24 11:42:00,64.0,56.0,-100.00,NNE,17,21.0,30.0,75,0.00,,,0.19,559.000000,,2013-02-24 21:42:00,
2013-02-24 11:52:00,64.0,56.0,-100.00,NNE,17,21.0,30.0,75,0.00,,,0.19,559.000000,,2013-02-24 21:52:00,
2013-02-24 12:01:00,67.0,57.0,-100.00,NNE,27,24.0,34.0,71,0.00,,,0.19,917.000000,,2013-02-24 22:01:00,
2013-02-24 12:32:00,67.0,57.0,-100.00,NNE,27,24.0,34.0,71,0.00,,,0.19,917.000000,,2013-02-24 22:32:00,
2013-02-24 12:42:00,67.0,57.0,-100.00,NNE,27,24.0,34.0,71,0.00,,,0.19,917.000000,,2013-02-24 22:42:00,
2013-02-24 12:52:00,67.0,57.0,-100.00,NNE,27,24.0,34.0,71,0.00,,,0.19,917.000000,,2013-02-24 22:52:00,
2013-02-24 13:01:00,66.0,57.0,-100.00,NNE,32,23.0,34.0,74,0.00,,,0.19,931.000000,,2013-02-24 23:01:00,
2013-02-24 13:22:00,66.0,57.0,-100.00,NNE,32,23.0,34.0,74,0.00,,,0.19,931.000000,,2013-02-24 23:22:00,
2013-02-24 13:32:00,66.0,57.0,-100.00,NNE,32,23.0,34.0,74,0.00,,,0.19,931.000000,,2013-02-24 23:32:00,
2013-02-24 13:42:00,66.0,57.0,-100.00,NNE,32,23.0,34.0,74,0.00,,,0.19,931.000000,,2013-02-24 23:42:00,
2013-02-24 13:52:00,66.0,57.0,-100.00,NNE,32,23.0,34.0,74,0.00,,,0.19,931.000000,,2013-02-24 23:52:00,
2013-02-24 14:01:00,67.0,57.0,-100.00,NNE,33,23.0,33.0,70,0.00,,,0.19,928.000000,,2013-02-25 00:01:00,
2013-02-24 14:32:00,67.0,57.0,-100.00,NNE,33,23.0,33.0,70,0.00,,,0.19,928.000000,,2013-02-25 00:32:00,
2013-02-24 14:42:00,67.0,57.0,-100.00,NNE,33,23.0,33.0,70,0.00,,,0.19,928.000000,,2013-02-25 00:42:00,
2013-02-24 14:52:00,67.0,57.0,-100.00,NNE,33,23.0,33.0,70,0.00,,,0.19,928.000000,,2013-02-25 00:52:00,
2013-02-24 15:01:00,65.0,57.0,-100.00,NNE,33,24.0,36.0,75,0.00,,,0.19,815.000000,,2013-02-25 01:01:00,
2013-02-24 15:32:00,65.0,57.0,-100.00,NNE,33,24.0,36.0,75,0.00,,,0.19,815.000000,,2013-02-25 01:32:00,
2013-02-24 15:42:00,65.0,57.0,-100.00,NNE,33,24.0,36.0,75,0.00,,,0.19,815.000000,,2013-02-25 01:42:00,
2013-02-24 15:52:00,65.0,57.0,-100.00,NNE,33,24.0,36.0,75,0.00,,,0.19,815.000000,,2013-02-25 01:52:00,
2013-02-24 16:01:00,66.0,56.0,-100.00,NE,38,19.0,34.0,71,0.00,,,0.18,644.000000,,2013-02-25 02:01:00,
2013-02-24 16:32:00,66.0,56.0,-100.00,NE,38,19.0,34.0,71,0.00,,,0.18,644.000000,,2013-02-25 02:32:00,
2013-02-24 16:42:00,66.0,56.0,-100.00,NE,38,19.0,34.0,71,0.00,,,0.18,644.000000,,2013-02-25 02:42:00,
2013-02-24 16:52:00,66.0,56.0,-100.00,NE,38,19.0,34.0,71,0.00,,,0.18,644.000000,,2013-02-25 02:52:00,
2013-02-24 17:01:00,64.0,57.0,-100.00,NNE,22,23.0,38.0,77,0.00,,,0.18,433.000000,,2013-02-25 03:01:00,
2013-02-24 17:21:00,64.0,57.0,-100.00,NNE,22,23.0,38.0,77,0.00,,,0.18,433.000000,,2013-02-25 03:21:00,
2013-02-24 17:32:00,64.0,57.0,-100.00,NNE,22,23.0,38.0,77,0.00,,,0.18,433.000000,,2013-02-25 03:32:00,
2013-02-24 17:42:00,64.0,57.0,-100.00,NNE,22,23.0,38.0,77,0.00,,,0.18,433.000000,,2013-02-25 03:42:00,
2013-02-24 17:52:00,64.0,57.0,-100.00,NNE,22,23.0,38.0,77,0.00,,,0.18,433.000000,,2013-02-25 03:52:00,
2013-02-24 18:01:00,62.0,56.0,-100.00,North,11,10.0,33.0,82,0.00,,,0.18,200.000000,,2013-02-25 04:01:00,
2013-02-24 18:22:00,62.0,56.0,-100.00,North,11,10.0,33.0,82,0.00,,,0.18,200.000000,,2013-02-25 04:22:00,
2013-02-24 18:32:00,62.0,56.0,-100.00,North,11,10.0,33.0,82,0.00,,,0.18,200.000000,,2013-02-25 04:32:00,
2013-02-24 18:42:00,62.0,56.0,-100.00,North,11,10.0,33.0,82,0.00,,,0.18,200.000000,,2013-02-25 04:42:00,
2013-02-24 18:52:00,62.0,56.0,-100.00,North,11,10.0,33.0,82,0.00,,,0.18,200.000000,,2013-02-25 04:52:00,
2013-02-24 19:01:00,59.0,56.0,-100.00,NE,55,6.0,20.0,89,0.00,,,0.16,7.000000,,2013-02-25 05:01:00,
2013-02-24 19:32:00,59.0,56.0,-100.00,NE,55,6.0,20.0,89,0.00,,,0.16,7.000000,,2013-02-25 05:32:00,
2013-02-24 19:42:00,59.0,56.0,-100.00,NE,55,6.0,20.0,89,0.00,,,0.16,7.000000,,2013-02-25 05:42:00,
2013-02-24 19:52:00,59.0,56.0,-100.00,NE,55,6.0,20.0,89,0.00,,,0.16,7.000000,,2013-02-25 05:52:00,
2013-02-24 20:01:00,59.0,56.0,-100.00,NE,36,9.0,22.0,89,0.00,,,0.16,0.000000,,2013-02-25 06:01:00,
2013-02-24 20:32:00,59.0,56.0,-100.00,NE,36,9.0,22.0,89,0.00,,,0.16,0.000000,,2013-02-25 06:32:00,
2013-02-24 20:42:00,59.0,56.0,-100.00,NE,36,9.0,22.0,89,0.00,,,0.16,0.000000,,2013-02-25 06:42:00,
2013-02-24 20:52:00,59.0,56.0,-100.00,NE,36,9.0,22.0,89,0.00,,,0.16,0.000000,,2013-02-25 06:52:00,
2013-02-24 21:01:00,58.0,54.0,-100.00,NNE,17,12.0,22.0,88,0.00,,,0.15,0.000000,,2013-02-25 07:01:00,
2013-02-24 21:32:00,58.0,54.0,-100.00,NNE,17,12.0,22.0,88,0.00,,,0.15,0.000000,,2013-02-25 07:32:00,
2013-02-24 21:42:00,58.0,54.0,-100.00,NNE,17,12.0,22.0,88,0.00,,,0.15,0.000000,,2013-02-25 07:42:00,
2013-02-24 21:52:00,58.0,54.0,-100.00,NNE,17,12.0,22.0,88,0.00,,,0.15,0.000000,,2013-02-25 07:52:00,
2013-02-24 22:01:00,58.0,54.0,-100.00,NNE,12,21.0,31.0,85,0.00,,,0.13,0.000000,,2013-02-25 08:01:00,
2013-02-24 22:32:00,58.0,54.0,-100.00,NNE,12,21.0,31.0,85,0.00,,,0.13,0.000000,,2013-02-25 08:32:00,
2013-02-24 22:42:00,58.0,54.0,-100.00,NNE,12,21.0,31.0,85,0.00,,,0.13,0.000000,,2013-02-25 08:42:00,
2013-02-24 22:52:00,58.0,54.0,-100.00,NNE,12,21.0,31.0,85,0.00,,,0.13,0.000000,,2013-02-25 08:52:00,
2013-02-24 23:01:00,58.0,53.0,-100.00,NNE,15,22.0,35.0,84,0.00,,,0.12,0.000000,,2013-02-25 09:01:00,
2013-02-24 23:32:00,58.0,53.0,-100.00,NNE,15,22.0,35.0,84,0.00,,,0.12,0.000000,,2013-02-25 09:32:00,
2013-02-24 23:42:00,58.0,53.0,-100.00,NNE,15,22.0,35.0,84,0.00,,,0.12,0.000000,,2013-02-25 09:42:00,
2013-02-24 23:52:00,58.0,53.0,-100.00,NNE,15,22.0,35.0,84,0.00,,,0.12,0.000000,,2013-02-25 09:52:00,